Aérodrome :
LOGIN :

S'inscrire | Disclaimer

   EN    FR    IT 

 










Légende :    VFR   VFR Marginal   IFR   IFR Intensif   IFR Très Intensif
Visi : 
Plafond : 
>= 8 km
>= 3000ft
5 à 8 km
1000 à 3000 ft
1500m à 5 km
500 à 1000 ft
800 à 1500m
200 à 500 ft
< 800m
< 200 ft
Symboles :   Orages  Brouillard  Fortes neiges  Fortes précipitations  Vent > 20 kt
SIGMETs :   Divers  Orages  Givrage  Turbulence  Onde Orograph.  Cendres Volcan.







- Altitude de l'aérodrome : 277 ft
- Code IATA : JER
- Voir les cartes d'approche


EGJJ - Jersey

DERNIER METAR :
  • 242150Z AUTO 29008KT 9999 NCD 12/11 Q1020

METARs EXPIRÉS :
  • 242120Z AUTO 28008KT 9999 NCD 12/11 Q1020
  • 242050Z AUTO 28006KT 9999 NCD 12/11 Q1020
  • 242020Z 28006KT 9999 FEW003 12/11 Q1020
  • 241950Z 29007KT 9999 FEW004 13/12 Q1020

TAF TAF EGJJ
Valide du 24 à 21h jusqu'au 25 à 06h UTC


242002Z 2421/2506 30007KT 9999 FEW004
PROB40 2423/2506 6000 HZ
PROB30
TEMPO 2500/2506 4000 BR BKN004
ATIS : +44 1534 498 073
Pas de NOTAMs connus pour ce terrain.



MET'MAP, la Météo Aéronautique d'un coup d'oeil ! - Copyright ORBIFLY Décembre 2007 - Disclaimer

ORBIFLY MET'MAP TEAM :

Programmation & Développement : Alexandra Zaïnal
Conception & Développement : Baudouin d'Aumeries
Co-Programmation & Développement : Marc-Olivier Méhu
Soutien technique & logistique : Manuel Goepfert

Contact : metmap@orbifly.com




SOURCES & CREDITS :

   NOAA